Ball, Louisiana
Current Conditions -  °F | °C
As of 9:53 PM on Friday 19 Dec 2014 (Local Time) from KESF Reporting Station
Overcast Overcast  
Wind Chill: 45°   Ceiling: 600
Heat Index: 48°   Visibility: 10mi
Dew Point: 45°   Wind: 6mph
Humidity: 89%   Direction: NA
Pressure: 30.16"   Gusts: NA
Location:  31.42°N, 92.41°W
Report Text: KESF 200353Z AUTO VRB05KT 10SM OVC006 09/07 A3016 RMK AO2 SLP214 T00890072
Loading
Personal Weather Stations






























Interactive Weather Map New forecast layout! Learn more

10-Day Weather Forecast

Advertisements
Track Severe Weather on mobile